KCRG/CRG METAR and TAF weather

Enter ICAO airport designator
Station Type Date Time Source
KCRG METAR 2023/02/06 19:53 UTC NOAA

KCRG 061953Z 05010KT 10SM CLR 19/07 A3016 RMK AO2 SLP212 T01940067


Station Type Date Time Source
KCRG Decoded METAR 2023/02/06 19:53 UTC NOAA

JACKSONVILLE CRAIG MUN, FL, United States (KCRG) 30-20N 81-31W 13M
Feb 06, 2023 - 02:53 PM EST / 2023.02.06 1953 UTC
Wind: from the NE (050 degrees) at 12 MPH (10 KT):0
Visibility: 10 mile(s):0
Sky conditions: clear
Temperature: 66.9 F (19.4 C)
Dew Point: 44.1 F (6.7 C)
Relative Humidity: 43%
Pressure (altimeter): 30.16 in. Hg (1021 hPa)
ob: KCRG 061953Z 05010KT 10SM CLR 19/07 A3016 RMK AO2 SLP212 T01940067
cycle: 20

Station Type Date Time Source
KCRG TAF 2023/02/06 18:22 UTC NOAA

TAF KCRG 061720Z 0618/0718 34006KT P6SM SCT250
FM062100 07008KT P6SM FEW250
FM070100 08003KT P6SM SCT250
FM071300 11005KT P6SM FEW250

Example: see airport list